createdAt,value
2019-03-04T00:00:57.440Z,8.20
2019-03-04T00:02:04.172Z,8.20
2019-03-04T00:03:11.068Z,8.20
2019-03-04T00:04:17.979Z,8.30
2019-03-04T00:05:24.994Z,8.30
2019-03-04T00:06:32.072Z,8.30
2019-03-04T00:07:39.263Z,8.30
2019-03-04T00:08:46.311Z,8.20
2019-03-04T00:09:54.384Z,8.20
2019-03-04T00:11:02.962Z,8.20
2019-03-04T00:12:10.106Z,8.20
2019-03-04T00:13:17.280Z,8.20
2019-03-04T00:14:24.318Z,8.20
2019-03-04T00:15:31.466Z,8.20
2019-03-04T00:16:38.469Z,8.20
2019-03-04T00:17:45.835Z,8.20
2019-03-04T00:18:52.889Z,8.20
2019-03-04T00:20:00.015Z,8.20
2019-03-04T00:21:06.815Z,8.20
2019-03-04T00:22:14.049Z,8.20
2019-03-04T00:23:20.913Z,8.20
2019-03-04T00:24:27.782Z,8.20
2019-03-04T00:25:34.982Z,8.20
2019-03-04T00:26:41.567Z,8.20
2019-03-04T00:27:48.469Z,8.20
2019-03-04T00:28:55.440Z,8.20
2019-03-04T00:30:02.517Z,8.20
2019-03-04T00:31:09.631Z,8.20
2019-03-04T00:32:16.697Z,8.30
2019-03-04T00:33:23.376Z,8.30
2019-03-04T00:34:30.109Z,8.30
2019-03-04T00:35:36.925Z,8.30
2019-03-04T00:36:43.584Z,8.30
2019-03-04T00:37:50.330Z,8.30
2019-03-04T00:38:57.011Z,8.30
2019-03-04T00:40:03.697Z,8.20
2019-03-04T00:41:10.811Z,8.20
2019-03-04T00:42:17.532Z,8.20
2019-03-04T00:43:24.151Z,8.20
2019-03-04T00:44:32.608Z,8.20
2019-03-04T00:45:39.746Z,8.20
2019-03-04T00:46:46.538Z,8.20
2019-03-04T00:47:53.753Z,8.20
2019-03-04T00:49:00.450Z,8.30
2019-03-04T00:50:08.251Z,8.20
2019-03-04T00:51:15.484Z,8.20
2019-03-04T00:52:22.562Z,8.20
2019-03-04T00:53:29.598Z,8.20
2019-03-04T00:54:36.299Z,8.20
2019-03-04T00:55:43.500Z,8.20
2019-03-04T00:56:50.507Z,8.20
2019-03-04T00:57:57.406Z,8.20
2019-03-04T00:59:04.320Z,8.20
2019-03-04T01:00:15.923Z,8.20
2019-03-04T01:01:22.697Z,8.20
2019-03-04T01:02:29.444Z,8.20
2019-03-04T01:03:36.527Z,8.20
2019-03-04T01:04:43.402Z,8.20
2019-03-04T01:05:50.559Z,8.20
2019-03-04T01:06:57.532Z,8.20
2019-03-04T01:08:04.510Z,8.20
2019-03-04T01:09:14.577Z,8.20
2019-03-04T01:10:22.019Z,8.20
2019-03-04T01:11:28.659Z,8.20
2019-03-04T01:12:35.474Z,8.20
2019-03-04T01:13:42.565Z,8.20
2019-03-04T01:14:49.629Z,8.20
2019-03-04T01:15:56.661Z,8.20
2019-03-04T01:17:05.211Z,8.30
2019-03-04T01:18:12.263Z,8.30
2019-03-04T01:19:18.957Z,8.20
2019-03-04T01:20:26.009Z,8.20
2019-03-04T01:21:33.228Z,8.30
2019-03-04T01:22:41.089Z,8.30
2019-03-04T01:23:47.943Z,8.30
2019-03-04T01:24:54.790Z,8.30
2019-03-04T01:26:03.037Z,8.30
2019-03-04T01:27:09.960Z,8.30
2019-03-04T01:28:17.188Z,8.20
2019-03-04T01:29:24.445Z,8.20
2019-03-04T01:30:31.617Z,8.30
2019-03-04T01:31:38.660Z,8.20
2019-03-04T01:32:45.746Z,8.20
2019-03-04T01:33:52.755Z,8.20
2019-03-04T01:34:59.764Z,8.20
2019-03-04T01:36:06.541Z,8.30
2019-03-04T01:37:13.368Z,8.30
2019-03-04T01:38:20.577Z,8.30
2019-03-04T01:39:28.696Z,8.30
2019-03-04T01:40:35.849Z,8.30
2019-03-04T01:41:42.650Z,8.30
2019-03-04T01:42:49.889Z,8.30
2019-03-04T01:43:56.741Z,8.30
2019-03-04T01:45:03.706Z,8.30
2019-03-04T01:46:10.339Z,8.30
2019-03-04T01:47:17.481Z,8.30
2019-03-04T01:48:24.310Z,8.30
2019-03-04T01:49:31.414Z,8.30
2019-03-04T01:50:38.369Z,8.30
2019-03-04T01:51:45.248Z,8.30
2019-03-04T01:52:51.890Z,8.30
2019-03-04T01:53:58.899Z,8.30
2019-03-04T01:55:05.640Z,8.30
2019-03-04T01:56:12.290Z,8.30
2019-03-04T01:57:19.264Z,8.30
2019-03-04T01:58:26.550Z,8.20
2019-03-04T01:59:34.554Z,8.20
2019-03-04T02:00:41.820Z,8.20
2019-03-04T02:01:49.408Z,8.30
2019-03-04T02:02:56.562Z,8.30
2019-03-04T02:04:03.527Z,8.30
2019-03-04T02:05:10.597Z,8.30
2019-03-04T02:06:17.625Z,8.30
2019-03-04T02:07:24.549Z,8.30
2019-03-04T02:08:31.151Z,8.30
2019-03-04T02:09:37.900Z,8.30
2019-03-04T02:10:44.943Z,8.30
2019-03-04T02:11:52.062Z,8.30
2019-03-04T02:12:58.809Z,8.30
2019-03-04T02:14:05.530Z,8.30
2019-03-04T02:15:14.373Z,8.30
2019-03-04T02:16:22.646Z,8.30
2019-03-04T02:17:29.471Z,8.40
2019-03-04T02:18:36.415Z,8.40
2019-03-04T02:19:43.402Z,8.30
2019-03-04T02:20:50.360Z,8.30
2019-03-04T02:21:57.490Z,8.40
2019-03-04T02:23:04.735Z,8.30
2019-03-04T02:24:22.388Z,8.30
2019-03-04T02:26:21.371Z,8.30
2019-03-04T02:27:28.574Z,8.30
2019-03-04T02:28:35.689Z,8.30
2019-03-04T02:29:42.570Z,8.30
2019-03-04T02:30:50.338Z,8.30
2019-03-04T02:31:57.393Z,8.30
2019-03-04T02:33:04.234Z,8.30
2019-03-04T02:34:11.075Z,8.30
2019-03-04T02:35:18.201Z,8.30
2019-03-04T02:36:25.009Z,8.30
2019-03-04T02:37:31.921Z,8.30
2019-03-04T02:38:38.912Z,8.30
2019-03-04T02:39:46.004Z,8.30
2019-03-04T02:40:53.080Z,8.30
2019-03-04T02:41:59.858Z,8.30
2019-03-04T02:43:06.909Z,8.30
2019-03-04T02:44:14.041Z,8.30
2019-03-04T02:45:21.258Z,8.30
2019-03-04T02:46:28.374Z,8.30
2019-03-04T02:47:35.682Z,8.30
2019-03-04T02:48:42.733Z,8.30
2019-03-04T02:49:49.609Z,8.40
2019-03-04T02:50:56.241Z,8.40
2019-03-04T02:52:03.398Z,8.40
2019-03-04T02:53:10.330Z,8.30
2019-03-04T02:54:17.417Z,8.30
2019-03-04T02:55:24.203Z,8.30
2019-03-04T02:56:31.149Z,8.30
2019-03-04T02:57:38.078Z,8.30
2019-03-04T02:58:45.396Z,8.30
2019-03-04T02:59:52.390Z,8.30
2019-03-04T03:00:59.180Z,8.30
2019-03-04T03:02:08.071Z,8.30
2019-03-04T03:03:15.008Z,8.30
2019-03-04T03:04:21.759Z,8.30
2019-03-04T03:05:28.781Z,8.30
2019-03-04T03:06:35.567Z,8.30
2019-03-04T03:07:42.536Z,8.30
2019-03-04T03:08:49.563Z,8.30
2019-03-04T03:09:56.705Z,8.30
2019-03-04T03:11:03.827Z,8.30
2019-03-04T03:12:11.961Z,8.30
2019-03-04T03:13:18.773Z,8.30
2019-03-04T03:14:25.822Z,8.30
2019-03-04T03:15:32.428Z,8.30
2019-03-04T03:16:39.753Z,8.30
2019-03-04T03:17:46.794Z,8.30
2019-03-04T03:18:53.728Z,8.30
2019-03-04T03:20:00.643Z,8.30
2019-03-04T03:21:08.054Z,8.30
2019-03-04T03:22:14.990Z,8.30
2019-03-04T03:23:22.162Z,8.40
2019-03-04T03:24:29.181Z,8.30
2019-03-04T03:25:36.294Z,8.30
2019-03-04T03:26:44.991Z,8.30
2019-03-04T03:27:52.176Z,8.30
2019-03-04T03:29:00.493Z,8.30
2019-03-04T03:30:09.091Z,8.30
2019-03-04T03:31:16.001Z,8.30
2019-03-04T03:32:22.868Z,8.30
2019-03-04T03:33:29.564Z,8.30
2019-03-04T03:34:36.331Z,8.40
2019-03-04T03:35:43.409Z,8.40
2019-03-04T03:36:50.178Z,8.40
2019-03-04T03:37:56.860Z,8.40
2019-03-04T03:39:04.609Z,8.40
2019-03-04T03:40:13.949Z,8.40
2019-03-04T03:41:21.189Z,8.40
2019-03-04T03:42:27.950Z,8.30
2019-03-04T03:43:34.807Z,8.30
2019-03-04T03:44:41.450Z,8.30
2019-03-04T03:45:48.478Z,8.40
2019-03-04T03:46:55.723Z,8.40
2019-03-04T03:48:02.721Z,8.40
2019-03-04T03:49:09.658Z,8.40
2019-03-04T03:50:16.796Z,8.30
2019-03-04T03:51:23.838Z,8.30
2019-03-04T03:52:30.711Z,8.30
2019-03-04T03:53:37.873Z,8.30
2019-03-04T03:54:44.811Z,8.40
2019-03-04T03:55:51.791Z,8.40
2019-03-04T03:56:58.497Z,8.40
2019-03-04T03:58:05.332Z,8.40
2019-03-04T03:59:12.011Z,8.40
2019-03-04T04:00:20.386Z,8.40
2019-03-04T04:01:27.001Z,8.30
2019-03-04T04:02:34.170Z,8.30
2019-03-04T04:03:41.326Z,8.30
2019-03-04T04:04:48.868Z,8.30
2019-03-04T04:05:55.498Z,8.30
2019-03-04T04:07:02.631Z,8.30
2019-03-04T04:08:09.533Z,8.30
2019-03-04T04:09:17.063Z,8.30
2019-03-04T04:10:23.982Z,8.30
2019-03-04T04:11:30.942Z,8.30
2019-03-04T04:12:38.659Z,8.40
2019-03-04T04:13:45.422Z,8.40
2019-03-04T04:14:52.725Z,8.40
2019-03-04T04:15:59.733Z,8.40
2019-03-04T04:17:06.842Z,8.40
2019-03-04T04:18:15.210Z,8.40
2019-03-04T04:19:22.238Z,8.50
2019-03-04T04:20:29.465Z,8.40
2019-03-04T04:21:37.374Z,8.40
2019-03-04T04:22:44.363Z,8.40
2019-03-04T04:23:51.248Z,8.40
2019-03-04T04:24:59.911Z,8.40
2019-03-04T04:26:26.021Z,8.40
2019-03-04T04:27:33.088Z,8.40
2019-03-04T04:28:39.999Z,8.50
2019-03-04T04:29:46.870Z,8.50
2019-03-04T04:30:53.918Z,8.50
2019-03-04T04:32:02.969Z,8.50
2019-03-04T04:33:09.798Z,8.50
2019-03-04T04:34:16.554Z,8.50
2019-03-04T04:35:23.260Z,8.40
2019-03-04T04:36:29.983Z,8.50
2019-03-04T04:37:36.737Z,8.50
2019-03-04T04:38:44.351Z,8.50
2019-03-04T04:39:51.265Z,8.60
2019-03-04T04:40:57.930Z,8.50
2019-03-04T04:42:04.564Z,8.50
2019-03-04T04:43:11.331Z,8.50
2019-03-04T04:44:19.350Z,8.50
2019-03-04T04:45:26.460Z,8.50
2019-03-04T04:46:53.464Z,8.50
2019-03-04T04:48:00.472Z,8.50
2019-03-04T04:49:07.696Z,8.50
2019-03-04T04:50:15.326Z,8.50
2019-03-04T04:51:22.047Z,8.50
2019-03-04T04:52:29.012Z,8.50
2019-03-04T04:53:36.014Z,8.50
2019-03-04T04:54:43.019Z,8.50
2019-03-04T04:55:50.151Z,8.50
2019-03-04T04:56:57.058Z,8.60
2019-03-04T04:58:04.127Z,8.60
2019-03-04T04:59:11.167Z,8.60
2019-03-04T05:00:18.818Z,8.60
2019-03-04T05:01:25.498Z,8.60
2019-03-04T05:02:32.504Z,8.60
2019-03-04T05:03:39.292Z,8.60
2019-03-04T05:04:46.429Z,8.60
2019-03-04T05:05:53.390Z,8.60
2019-03-04T05:07:00.252Z,8.60
2019-03-04T05:08:07.400Z,8.60
2019-03-04T05:09:14.219Z,8.60
2019-03-04T05:10:21.029Z,8.60
2019-03-04T05:11:27.818Z,8.60
2019-03-04T05:12:34.418Z,8.60
2019-03-04T05:13:41.611Z,8.70
2019-03-04T05:14:49.047Z,8.70
2019-03-04T05:15:56.041Z,8.70
2019-03-04T05:17:03.095Z,8.70
2019-03-04T05:18:10.818Z,8.70
2019-03-04T05:19:17.948Z,8.70
2019-03-04T05:20:25.099Z,8.70
2019-03-04T05:21:32.098Z,8.70
2019-03-04T05:22:39.201Z,8.70
2019-03-04T05:23:46.298Z,8.70
2019-03-04T05:24:53.620Z,8.70
2019-03-04T05:26:00.826Z,8.70
2019-03-04T05:27:07.839Z,8.70
2019-03-04T05:28:14.991Z,8.60
2019-03-04T05:29:22.019Z,8.60
2019-03-04T05:30:29.069Z,8.60
2019-03-04T05:31:36.152Z,8.70
2019-03-04T05:32:43.197Z,8.60
2019-03-04T05:33:49.941Z,8.70
2019-03-04T05:34:57.246Z,8.60
2019-03-04T05:36:04.314Z,8.60
2019-03-04T05:37:11.199Z,8.60
2019-03-04T05:38:18.249Z,8.60
2019-03-04T05:39:25.175Z,8.70
2019-03-04T05:40:32.298Z,8.70
2019-03-04T05:41:38.947Z,8.60
2019-03-04T05:42:46.385Z,8.70
2019-03-04T05:43:53.387Z,8.70
2019-03-04T05:45:00.103Z,8.70
2019-03-04T05:46:07.210Z,8.70
2019-03-04T05:47:14.133Z,8.70
2019-03-04T05:48:21.297Z,8.60
2019-03-04T05:49:28.352Z,8.60
2019-03-04T05:50:35.371Z,8.70
2019-03-04T05:51:42.971Z,8.70
2019-03-04T05:52:49.932Z,8.70
2019-03-04T05:53:57.043Z,8.70
2019-03-04T05:55:03.786Z,8.70
2019-03-04T05:56:10.901Z,8.70
2019-03-04T05:57:17.906Z,8.70
2019-03-04T05:58:25.058Z,8.70
2019-03-04T05:59:31.961Z,8.70
2019-03-04T06:00:40.659Z,8.70
2019-03-04T06:02:03.646Z,8.70
2019-03-04T06:03:11.431Z,8.80
2019-03-04T06:04:19.507Z,8.80
2019-03-04T06:05:26.481Z,8.80
2019-03-04T06:06:59.254Z,8.80
2019-03-04T06:08:07.543Z,8.80
2019-03-04T06:09:14.715Z,8.80
2019-03-04T06:10:21.543Z,8.80
2019-03-04T06:11:28.888Z,8.90
2019-03-04T06:12:35.990Z,8.90
2019-03-04T06:13:42.989Z,8.90
2019-03-04T06:14:49.887Z,8.90
2019-03-04T06:15:57.588Z,8.90
2019-03-04T06:17:04.843Z,8.90
2019-03-04T06:18:11.958Z,8.90
2019-03-04T06:19:18.596Z,8.90
2019-03-04T06:20:26.486Z,8.90
2019-03-04T06:21:33.567Z,8.90
2019-03-04T06:22:40.808Z,8.90
2019-03-04T06:23:47.891Z,8.90
2019-03-04T06:24:55.251Z,8.90
2019-03-04T06:26:02.447Z,8.90
2019-03-04T06:27:09.567Z,8.90
2019-03-04T06:28:16.872Z,8.90
2019-03-04T06:29:24.064Z,8.90
2019-03-04T06:30:31.020Z,9.00
2019-03-04T06:31:38.017Z,9.00
2019-03-04T06:32:44.705Z,9.00
2019-03-04T06:33:51.506Z,8.90
2019-03-04T06:34:58.479Z,8.90
2019-03-04T06:36:06.323Z,8.90
2019-03-04T06:37:13.369Z,9.00
2019-03-04T06:38:20.050Z,8.90
2019-03-04T06:39:27.254Z,9.00
2019-03-04T06:40:34.558Z,9.00
2019-03-04T06:41:41.782Z,9.00
2019-03-04T06:42:49.179Z,9.00
2019-03-04T06:43:56.323Z,9.00
2019-03-04T06:45:03.599Z,9.00
2019-03-04T06:46:10.636Z,9.00
2019-03-04T06:47:17.887Z,9.00
2019-03-04T06:48:24.994Z,9.10
2019-03-04T06:49:32.042Z,9.10
2019-03-04T06:50:52.932Z,9.10
2019-03-04T06:52:00.679Z,9.10
2019-03-04T06:53:07.750Z,9.10
2019-03-04T06:54:55.102Z,9.10
2019-03-04T06:56:11.617Z,9.10
2019-03-04T06:57:45.202Z,9.20
2019-03-04T06:58:54.329Z,9.20
2019-03-04T07:00:47.257Z,9.20
2019-03-04T07:01:57.317Z,9.20
2019-03-04T07:03:07.898Z,9.20
2019-03-04T07:04:26.757Z,9.20
2019-03-04T07:05:47.391Z,9.30
2019-03-04T07:06:54.500Z,9.30
2019-03-04T07:08:01.670Z,9.30
2019-03-04T07:09:17.515Z,9.30
2019-03-04T07:10:24.085Z,9.30
2019-03-04T07:11:31.882Z,9.30
2019-03-04T07:12:39.100Z,9.30
2019-03-04T07:13:46.615Z,9.30
2019-03-04T07:14:53.957Z,9.40
2019-03-04T07:16:00.611Z,9.40
2019-03-04T07:17:07.481Z,9.40
2019-03-04T07:18:14.604Z,9.40
2019-03-04T07:19:28.968Z,9.50
2019-03-04T07:20:36.566Z,9.40
2019-03-04T07:21:43.478Z,9.50
2019-03-04T07:22:50.638Z,9.40
2019-03-04T07:23:58.057Z,9.50
2019-03-04T07:25:05.388Z,9.50
2019-03-04T07:26:12.119Z,9.60
2019-03-04T07:27:18.998Z,9.60
2019-03-04T07:28:25.803Z,9.60
2019-03-04T07:29:32.418Z,9.60
2019-03-04T07:30:39.271Z,9.60
2019-03-04T07:31:47.574Z,9.70
2019-03-04T07:32:54.811Z,9.70
2019-03-04T07:34:01.570Z,9.80
2019-03-04T07:35:08.920Z,9.70
2019-03-04T07:36:16.032Z,9.80
2019-03-04T07:37:23.018Z,9.80
2019-03-04T07:38:44.890Z,9.70
2019-03-04T07:39:52.165Z,9.80
2019-03-04T07:40:59.359Z,9.80
2019-03-04T07:42:06.563Z,10.30
2019-03-04T07:43:14.040Z,11.10
2019-03-04T07:44:20.781Z,11.10
2019-03-04T07:45:27.961Z,11.00
2019-03-04T07:46:35.193Z,10.80
2019-03-04T07:47:42.403Z,10.70
2019-03-04T07:48:49.718Z,10.60
2019-03-04T07:49:56.887Z,10.60
2019-03-04T07:51:14.052Z,10.50
2019-03-04T07:52:21.542Z,10.50
2019-03-04T07:53:28.281Z,10.40
2019-03-04T07:54:37.131Z,10.40
2019-03-04T07:55:44.209Z,10.40
2019-03-04T07:56:51.694Z,10.40
2019-03-04T07:57:59.087Z,10.40
2019-03-04T07:59:06.262Z,10.40
2019-03-04T08:00:14.339Z,10.40
2019-03-04T08:01:21.091Z,10.50
2019-03-04T08:02:28.889Z,10.50
2019-03-04T08:03:35.649Z,10.60
2019-03-04T08:04:42.694Z,10.60
2019-03-04T08:05:50.866Z,10.70
2019-03-04T08:07:38.139Z,10.80
2019-03-04T08:09:21.456Z,10.80
2019-03-04T08:11:05.202Z,10.80
2019-03-04T08:13:04.834Z,10.80
2019-03-04T08:14:11.859Z,10.90
2019-03-04T08:15:18.559Z,11.00
2019-03-04T08:16:25.333Z,11.00
2019-03-04T08:17:32.060Z,11.00
2019-03-04T08:18:39.258Z,11.00
2019-03-04T08:19:46.548Z,11.00
2019-03-04T08:20:53.581Z,11.00
2019-03-04T08:22:00.931Z,11.00
2019-03-04T08:23:10.035Z,11.00
2019-03-04T08:24:16.644Z,11.20
2019-03-04T08:25:23.971Z,11.30
2019-03-04T08:26:31.061Z,11.50
2019-03-04T08:27:38.094Z,11.70
2019-03-04T08:28:45.302Z,11.70
2019-03-04T08:29:52.938Z,11.70
2019-03-04T08:31:00.006Z,11.70
2019-03-04T08:32:07.939Z,11.70
2019-03-04T08:33:14.775Z,11.70
2019-03-04T08:34:30.539Z,11.70
2019-03-04T08:35:29.910Z,11.70
2019-03-04T08:36:36.705Z,11.80
2019-03-04T08:37:43.450Z,12.00
2019-03-04T08:38:50.318Z,12.10
2019-03-04T08:39:57.069Z,12.10
2019-03-04T08:41:03.815Z,11.90
2019-03-04T08:42:10.551Z,11.90
2019-03-04T08:43:17.459Z,12.00
2019-03-04T08:44:24.364Z,12.00
2019-03-04T08:45:31.312Z,12.20
2019-03-04T08:46:38.661Z,12.20
2019-03-04T08:47:45.690Z,12.30
2019-03-04T08:48:52.952Z,12.40
2019-03-04T08:49:59.757Z,12.40
2019-03-04T08:51:06.799Z,12.40
2019-03-04T08:52:13.769Z,12.50
2019-03-04T08:53:20.923Z,12.60
2019-03-04T08:54:27.564Z,13.00
2019-03-04T08:55:34.747Z,13.40
2019-03-04T08:56:41.734Z,14.00
2019-03-04T08:57:48.706Z,14.80
2019-03-04T08:58:55.878Z,15.20
2019-03-04T09:00:02.968Z,15.80
2019-03-04T09:01:10.771Z,15.90
2019-03-04T09:02:17.704Z,16.00
2019-03-04T09:03:24.731Z,16.40
2019-03-04T09:04:31.740Z,17.10
2019-03-04T09:05:38.923Z,16.80
2019-03-04T09:06:45.882Z,16.20
2019-03-04T09:07:52.904Z,15.70
2019-03-04T09:09:01.111Z,15.70
2019-03-04T09:10:14.321Z,15.70
2019-03-04T09:11:21.431Z,16.40
2019-03-04T09:12:29.145Z,17.00
2019-03-04T09:13:36.130Z,17.00
2019-03-04T09:14:43.717Z,16.20
2019-03-04T09:15:50.450Z,15.60
2019-03-04T09:16:57.334Z,15.00
2019-03-04T09:18:04.388Z,14.50
2019-03-04T09:19:11.569Z,14.30
2019-03-04T09:20:19.177Z,13.90
2019-03-04T09:21:26.407Z,13.70
2019-03-04T09:22:33.590Z,13.40
2019-03-04T09:23:41.467Z,13.30
2019-03-04T09:24:48.465Z,13.20
2019-03-04T09:26:00.301Z,13.20
2019-03-04T09:27:08.469Z,13.20
2019-03-04T09:28:15.416Z,13.20
2019-03-04T09:29:22.254Z,13.20
2019-03-04T09:30:29.268Z,13.10
2019-03-04T09:31:36.626Z,13.10
2019-03-04T09:32:43.591Z,13.20
2019-03-04T09:33:50.273Z,13.30
2019-03-04T09:34:56.942Z,13.40
2019-03-04T09:36:04.291Z,13.40
2019-03-04T09:37:11.664Z,13.50
2019-03-04T09:38:18.778Z,13.70
2019-03-04T09:39:26.146Z,13.70
2019-03-04T09:40:33.529Z,13.70
2019-03-04T09:41:40.986Z,13.80
2019-03-04T09:42:48.172Z,14.00
2019-03-04T09:43:55.700Z,14.30
2019-03-04T09:45:02.629Z,14.70
2019-03-04T09:46:09.887Z,14.60
2019-03-04T09:47:16.830Z,14.70
2019-03-04T09:48:24.005Z,14.80
2019-03-04T09:49:31.234Z,14.90
2019-03-04T09:50:38.265Z,14.80
2019-03-04T09:51:46.214Z,14.90
2019-03-04T09:52:53.030Z,15.00
2019-03-04T09:53:59.763Z,15.20
2019-03-04T09:55:06.709Z,15.20
2019-03-04T09:56:14.194Z,15.00
2019-03-04T09:57:21.881Z,14.70
2019-03-04T09:58:28.810Z,14.50
2019-03-04T09:59:35.775Z,14.20
2019-03-04T10:00:50.774Z,14.20
2019-03-04T10:02:06.426Z,14.10
2019-03-04T10:03:44.460Z,14.30
2019-03-04T10:05:23.465Z,15.20
2019-03-04T10:06:56.409Z,17.90
2019-03-04T10:08:11.397Z,19.60
2019-03-04T10:10:16.575Z,19.90
2019-03-04T10:11:58.391Z,19.50
2019-03-04T10:13:41.745Z,17.90
2019-03-04T10:15:32.117Z,18.10
2019-03-04T10:16:53.060Z,18.40
2019-03-04T10:18:21.972Z,19.00
2019-03-04T10:19:51.218Z,20.10
2019-03-04T10:21:13.958Z,20.20
2019-03-04T10:22:34.240Z,19.80
2019-03-04T10:23:59.540Z,19.20
2019-03-04T10:25:23.420Z,19.00
2019-03-04T10:27:17.470Z,18.50
2019-03-04T10:29:17.570Z,18.20
2019-03-04T10:31:11.141Z,17.80
2019-03-04T10:32:43.131Z,17.30
2019-03-04T10:34:29.231Z,17.00
2019-03-04T10:35:51.672Z,17.10
2019-03-04T10:37:27.798Z,16.90
2019-03-04T10:38:56.100Z,16.80
2019-03-04T10:40:46.629Z,16.40
2019-03-04T10:42:18.656Z,16.20
2019-03-04T10:43:45.490Z,15.90
2019-03-04T10:45:35.303Z,15.80
2019-03-04T10:47:03.035Z,15.70
2019-03-04T10:48:10.242Z,15.70
2019-03-04T10:49:17.606Z,15.90
2019-03-04T10:50:24.981Z,16.00
2019-03-04T10:51:32.137Z,16.10
2019-03-04T10:52:38.884Z,16.20
2019-03-04T10:53:46.053Z,16.20
2019-03-04T10:54:53.291Z,16.30
2019-03-04T10:56:00.450Z,16.70
2019-03-04T10:57:08.592Z,17.10
2019-03-04T10:58:15.644Z,17.40
2019-03-04T10:59:23.633Z,17.80
2019-03-04T11:00:30.835Z,18.20
2019-03-04T11:01:37.546Z,19.10
2019-03-04T11:02:44.859Z,19.40
2019-03-04T11:03:51.882Z,20.30
2019-03-04T11:04:59.074Z,20.70
2019-03-04T11:06:06.455Z,21.50
2019-03-04T11:07:13.102Z,22.10
2019-03-04T11:08:20.243Z,22.20
2019-03-04T11:09:29.231Z,22.60
2019-03-04T11:10:36.467Z,22.60
2019-03-04T11:11:43.350Z,22.30
2019-03-04T11:12:50.700Z,22.00
2019-03-04T11:13:58.873Z,21.70
2019-03-04T11:15:09.969Z,21.00
2019-03-04T11:16:16.732Z,21.20
2019-03-04T11:17:23.835Z,20.80
2019-03-04T11:18:30.982Z,20.80
2019-03-04T11:19:38.044Z,21.80
2019-03-04T11:20:45.120Z,21.40
2019-03-04T11:21:51.912Z,21.30
2019-03-04T11:22:58.839Z,20.70
2019-03-04T11:24:06.312Z,21.60
2019-03-04T11:25:13.764Z,22.20
2019-03-04T11:26:21.248Z,22.70
2019-03-04T11:27:29.582Z,22.90
2019-03-04T11:28:36.804Z,23.00
2019-03-04T11:29:43.960Z,22.50
2019-03-04T11:30:51.029Z,21.70
2019-03-04T11:31:58.300Z,21.80
2019-03-04T11:33:05.599Z,20.60
2019-03-04T11:34:12.647Z,19.90
2019-03-04T11:35:19.455Z,19.40
2019-03-04T11:36:26.782Z,18.70
2019-03-04T11:37:34.008Z,18.00
2019-03-04T11:38:43.221Z,17.70
2019-03-04T11:40:12.213Z,17.60
2019-03-04T11:41:24.038Z,17.30
2019-03-04T11:42:31.040Z,17.00
2019-03-04T11:43:37.949Z,16.80
2019-03-04T11:44:45.777Z,16.60
2019-03-04T11:45:52.727Z,16.50
2019-03-04T11:46:59.880Z,16.30
2019-03-04T11:48:07.132Z,16.30
2019-03-04T11:49:14.923Z,16.30
2019-03-04T11:50:21.901Z,16.20
2019-03-04T11:51:29.009Z,16.30
2019-03-04T11:52:36.305Z,16.30
2019-03-04T11:53:43.408Z,16.20
2019-03-04T11:54:50.283Z,16.10
2019-03-04T11:55:58.450Z,16.10
2019-03-04T11:57:05.611Z,16.10
2019-03-04T11:58:13.851Z,16.10
2019-03-04T11:59:21.040Z,16.00
2019-03-04T12:00:35.647Z,16.20
2019-03-04T12:01:45.322Z,16.20
2019-03-04T12:02:52.244Z,16.40
2019-03-04T12:03:59.210Z,16.40
2019-03-04T12:05:06.702Z,16.40
2019-03-04T12:06:13.830Z,16.50
2019-03-04T12:07:20.686Z,16.40
2019-03-04T12:08:28.369Z,16.40
2019-03-04T12:09:35.318Z,16.70
2019-03-04T12:10:42.624Z,17.80
2019-03-04T12:11:49.699Z,19.00
2019-03-04T12:12:57.177Z,19.40
2019-03-04T12:14:05.130Z,20.40
2019-03-04T12:15:14.328Z,21.00
2019-03-04T12:16:20.826Z,21.40
2019-03-04T12:17:27.849Z,21.80
2019-03-04T12:18:34.759Z,21.70
2019-03-04T12:19:41.651Z,21.20
2019-03-04T12:20:48.391Z,21.00
2019-03-04T12:21:55.291Z,20.80
2019-03-04T12:23:02.678Z,19.70
2019-03-04T12:24:09.788Z,19.50
2019-03-04T12:25:17.735Z,19.50
2019-03-04T12:26:24.718Z,19.30
2019-03-04T12:27:31.700Z,18.60
2019-03-04T12:28:41.066Z,18.40
2019-03-04T12:29:48.120Z,18.20
2019-03-04T12:30:55.223Z,18.20
2019-03-04T12:32:16.543Z,18.20
2019-03-04T12:33:23.623Z,18.10
2019-03-04T12:34:30.472Z,18.30
2019-03-04T12:35:38.735Z,18.30
2019-03-04T12:36:45.603Z,18.30
2019-03-04T12:37:52.235Z,18.40
2019-03-04T12:38:58.950Z,18.30
2019-03-04T12:40:06.730Z,18.20
2019-03-04T12:41:14.690Z,18.20
2019-03-04T12:42:21.492Z,18.00
2019-03-04T12:43:28.601Z,18.20
2019-03-04T12:44:35.934Z,18.30
2019-03-04T12:45:42.957Z,18.10
2019-03-04T12:46:50.229Z,17.90
2019-03-04T12:47:57.727Z,17.70
2019-03-04T12:49:04.682Z,17.60
2019-03-04T12:50:24.006Z,17.60
2019-03-04T12:51:31.230Z,17.40
2019-03-04T12:52:38.355Z,17.30
2019-03-04T12:53:44.995Z,17.20
2019-03-04T12:54:52.520Z,17.20
2019-03-04T12:55:59.700Z,17.30
2019-03-04T12:57:06.884Z,17.30
2019-03-04T12:58:14.148Z,17.30
2019-03-04T12:59:21.004Z,17.00
2019-03-04T13:00:28.210Z,16.90
2019-03-04T13:01:34.916Z,16.90
2019-03-04T13:02:42.071Z,16.80
2019-03-04T13:03:49.527Z,16.70
2019-03-04T13:04:57.017Z,16.60
2019-03-04T13:06:05.551Z,16.50
2019-03-04T13:07:12.484Z,16.50
2019-03-04T13:08:19.584Z,16.60
2019-03-04T13:09:26.703Z,16.50
2019-03-04T13:10:33.819Z,16.40
2019-03-04T13:11:41.073Z,16.40
2019-03-04T13:12:48.242Z,16.40
2019-03-04T13:13:55.535Z,16.30
2019-03-04T13:15:02.830Z,16.20
2019-03-04T13:16:09.751Z,16.20
2019-03-04T13:17:16.431Z,16.20
2019-03-04T13:18:23.546Z,16.30
2019-03-04T13:19:30.889Z,16.30
2019-03-04T13:20:39.305Z,16.40
2019-03-04T13:21:46.402Z,16.40
2019-03-04T13:22:53.737Z,16.50
2019-03-04T13:24:01.067Z,16.50
2019-03-04T13:25:09.037Z,16.50
2019-03-04T13:26:16.405Z,16.60
2019-03-04T13:27:23.949Z,16.60
2019-03-04T13:28:31.248Z,16.90
2019-03-04T13:29:38.438Z,17.10
2019-03-04T13:30:45.673Z,17.10
2019-03-04T13:31:52.886Z,17.00
2019-03-04T13:33:00.162Z,17.00
2019-03-04T13:34:06.919Z,16.90
2019-03-04T13:35:24.147Z,16.90
2019-03-04T13:36:24.130Z,17.00
2019-03-04T13:37:32.151Z,17.00
2019-03-04T13:38:38.796Z,17.00
2019-03-04T13:39:46.182Z,17.00
2019-03-04T13:40:53.510Z,17.00
2019-03-04T13:42:02.240Z,16.80
2019-03-04T13:43:09.457Z,16.80
2019-03-04T13:44:17.418Z,16.80
2019-03-04T13:45:24.617Z,16.70
2019-03-04T13:46:32.003Z,16.70
2019-03-04T13:47:38.690Z,16.50
2019-03-04T13:48:46.134Z,16.40
2019-03-04T13:49:53.431Z,16.40
2019-03-04T13:51:00.799Z,16.30
2019-03-04T13:52:08.021Z,16.40
2019-03-04T13:53:14.948Z,16.50
2019-03-04T13:54:22.103Z,16.80
2019-03-04T13:55:29.678Z,17.00
2019-03-04T13:56:36.750Z,16.90
2019-03-04T13:57:44.019Z,16.80
2019-03-04T13:58:51.724Z,16.70
2019-03-04T13:59:59.776Z,16.60
2019-03-04T14:01:07.982Z,16.50
2019-03-04T14:02:14.863Z,16.50
2019-03-04T14:03:22.481Z,16.50
2019-03-04T14:04:29.451Z,16.40
2019-03-04T14:05:36.517Z,16.20
2019-03-04T14:06:43.862Z,16.20
2019-03-04T14:07:51.168Z,16.20
2019-03-04T14:08:59.058Z,16.10
2019-03-04T14:10:06.406Z,16.10
2019-03-04T14:11:13.751Z,16.20
2019-03-04T14:12:21.008Z,16.20
2019-03-04T14:13:28.292Z,16.20
2019-03-04T14:14:35.556Z,16.30
2019-03-04T14:15:43.033Z,16.60
2019-03-04T14:16:49.794Z,16.80
2019-03-04T14:17:57.364Z,17.00
2019-03-04T14:19:04.653Z,17.10
2019-03-04T14:20:12.048Z,17.10
2019-03-04T14:21:19.220Z,17.20
2019-03-04T14:22:26.026Z,17.10
2019-03-04T14:23:33.048Z,17.30
2019-03-04T14:24:40.182Z,17.50
2019-03-04T14:25:47.269Z,17.70
2019-03-04T14:26:54.464Z,17.80
2019-03-04T14:28:02.495Z,17.70
2019-03-04T14:29:09.718Z,17.60
2019-03-04T14:30:17.961Z,17.30
2019-03-04T14:31:25.107Z,17.10
2019-03-04T14:32:32.503Z,16.90
2019-03-04T14:33:39.321Z,16.80
2019-03-04T14:34:46.426Z,16.70
2019-03-04T14:35:53.778Z,16.50
2019-03-04T14:37:03.398Z,16.40
2019-03-04T14:38:11.275Z,16.30
2019-03-04T14:39:18.523Z,16.30
2019-03-04T14:40:26.333Z,16.20
2019-03-04T14:41:34.119Z,16.20
2019-03-04T14:42:41.550Z,16.10
2019-03-04T14:43:48.720Z,16.00
2019-03-04T14:44:55.848Z,16.00
2019-03-04T14:46:03.400Z,15.90
2019-03-04T14:47:10.806Z,15.80
2019-03-04T14:48:18.218Z,15.80
2019-03-04T14:49:25.677Z,15.80
2019-03-04T14:50:33.098Z,15.70
2019-03-04T14:51:40.143Z,15.70
2019-03-04T14:52:47.864Z,15.60
2019-03-04T14:53:55.151Z,15.60
2019-03-04T14:55:02.498Z,15.60
2019-03-04T14:56:10.080Z,15.60
2019-03-04T14:57:17.288Z,15.60
2019-03-04T14:58:24.509Z,15.60
2019-03-04T14:59:31.583Z,15.60
2019-03-04T15:00:39.919Z,15.60
2019-03-04T15:01:46.876Z,15.60
2019-03-04T15:02:54.346Z,15.60
2019-03-04T15:04:02.561Z,15.50